createdAt,value
2022-10-04T04:02:45.956Z,99412.00
2022-10-04T04:07:11.312Z,99414.22
2022-10-04T04:11:27.445Z,99417.81
2022-10-04T04:15:43.364Z,99424.41
2022-10-04T04:20:02.267Z,99423.00
2022-10-04T04:24:29.213Z,99426.41
2022-10-04T04:28:49.012Z,99425.66
2022-10-04T04:33:10.409Z,99441.69
2022-10-04T04:37:21.950Z,99437.72
2022-10-04T04:41:36.844Z,99436.03
2022-10-04T04:46:08.546Z,99435.28
2022-10-04T04:50:30.318Z,99437.06
2022-10-04T04:54:41.832Z,99437.22
2022-10-04T04:58:56.973Z,99428.47
2022-10-04T05:03:18.469Z,99432.38
2022-10-04T05:07:30.439Z,99421.69
2022-10-04T05:11:42.183Z,99422.38
2022-10-04T05:15:55.251Z,99423.31
2022-10-04T05:20:07.276Z,99421.22
2022-10-04T05:24:21.362Z,99429.97
2022-10-04T05:28:33.198Z,99431.59
2022-10-04T05:33:10.704Z,99429.00
2022-10-04T05:37:25.283Z,99424.41
2022-10-04T05:42:19.697Z,99417.81
2022-10-04T05:46:35.633Z,99404.78
2022-10-04T05:50:48.655Z,99412.00
2022-10-04T05:55:12.194Z,99416.03
2022-10-04T05:59:31.942Z,99429.84
2022-10-04T06:03:52.509Z,99425.28
2022-10-04T06:08:23.926Z,99429.84
2022-10-04T06:12:44.440Z,99441.06
2022-10-04T06:17:11.309Z,99439.34
2022-10-04T06:21:28.458Z,99434.97
2022-10-04T06:25:52.965Z,99439.09
2022-10-04T06:30:16.564Z,99432.00
2022-10-04T06:34:40.323Z,99434.59
2022-10-04T06:39:09.417Z,99442.06
2022-10-04T06:43:36.142Z,99450.84
2022-10-04T06:48:21.874Z,99430.84
2022-10-04T06:53:01.613Z,99429.13
2022-10-04T06:57:35.570Z,99426.16
2022-10-04T07:01:51.456Z,99419.84
2022-10-04T07:06:05.354Z,99428.31
2022-10-04T07:10:32.903Z,99426.44
2022-10-04T07:14:53.039Z,99422.59
2022-10-04T07:19:11.004Z,99432.94
2022-10-04T07:23:32.221Z,99433.75
2022-10-04T07:28:21.544Z,99435.81
2022-10-04T07:32:38.740Z,99443.78
2022-10-04T07:36:55.066Z,99444.09
2022-10-04T07:41:20.849Z,99455.34
2022-10-04T07:45:35.316Z,99451.31
2022-10-04T07:49:50.861Z,99444.59
2022-10-04T07:54:30.246Z,99450.84
2022-10-04T07:59:08.630Z,99444.75
2022-10-04T08:03:49.381Z,99434.84
2022-10-04T08:08:19.673Z,99430.31
2022-10-04T08:12:52.027Z,99426.03
2022-10-04T08:17:30.570Z,99419.66
2022-10-04T08:22:05.496Z,99423.78
2022-10-04T08:26:59.297Z,99425.88
2022-10-04T08:31:26.178Z,99429.22
2022-10-04T08:35:56.214Z,99426.31
2022-10-04T08:40:12.871Z,99436.88
2022-10-04T08:44:34.224Z,99431.47
2022-10-04T08:49:28.762Z,99429.41
2022-10-04T08:53:49.173Z,99423.06
2022-10-04T08:58:12.858Z,99420.03
2022-10-04T09:02:58.388Z,99429.81
2022-10-04T09:07:39.289Z,99435.28
2022-10-04T09:12:32.535Z,99437.81
2022-10-04T09:16:53.030Z,99431.47
2022-10-04T09:21:14.339Z,99433.34
2022-10-04T09:25:31.820Z,99438.59
2022-10-04T09:29:55.527Z,99433.44
2022-10-04T09:34:25.662Z,99424.13
2022-10-04T09:39:28.294Z,99416.69
2022-10-04T09:44:01.103Z,99411.06
2022-10-04T09:48:25.335Z,99415.16
2022-10-04T09:52:53.077Z,99400.59
2022-10-04T09:57:39.281Z,99395.53
2022-10-04T10:02:09.996Z,99395.34
2022-10-04T10:06:46.584Z,99400.09
2022-10-04T10:11:37.843Z,99394.69
2022-10-04T10:16:04.684Z,99384.66
2022-10-04T10:20:58.455Z,99373.75
2022-10-04T10:25:34.367Z,99382.34
2022-10-04T10:30:03.215Z,99374.47
2022-10-04T10:34:36.049Z,99385.91
2022-10-04T10:38:55.005Z,99388.88
2022-10-04T10:43:37.818Z,99388.06
2022-10-04T10:48:00.573Z,99389.38
2022-10-04T10:52:18.181Z,99385.41
2022-10-04T10:56:57.687Z,99379.59
2022-10-04T11:01:28.065Z,99375.72
2022-10-04T11:06:03.497Z,99376.16
2022-10-04T11:10:36.545Z,99371.84
2022-10-04T11:15:29.454Z,99373.63
2022-10-04T11:19:40.943Z,99366.88
2022-10-04T11:24:29.930Z,99373.31
2022-10-04T11:28:50.599Z,99370.91
2022-10-04T11:33:39.539Z,99367.03
2022-10-04T11:38:16.077Z,99359.13
2022-10-04T11:42:39.696Z,99350.31
2022-10-04T11:47:04.501Z,99350.78
2022-10-04T11:51:38.547Z,99347.75
2022-10-04T11:56:19.462Z,99350.25
2022-10-04T12:00:45.266Z,99337.06
2022-10-04T12:05:33.027Z,99335.28
2022-10-04T12:10:00.945Z,99334.19
2022-10-04T12:14:29.318Z,99332.06
2022-10-04T12:19:15.394Z,99325.59
2022-10-04T12:23:33.063Z,99315.25
2022-10-04T12:28:14.344Z,99313.47
2022-10-04T12:32:34.298Z,99301.91
2022-10-04T12:37:13.795Z,99308.41
2022-10-04T12:41:48.882Z,99299.88
2022-10-04T12:46:00.408Z,99299.31
2022-10-04T12:50:39.415Z,99292.03
2022-10-04T12:54:59.400Z,99284.69
2022-10-04T12:59:39.891Z,99289.63
2022-10-04T13:03:54.982Z,99289.38
2022-10-04T13:08:30.643Z,99283.69
2022-10-04T13:13:05.211Z,99282.91
2022-10-04T13:17:50.000Z,99281.25
2022-10-04T13:22:44.363Z,99267.22
2022-10-04T13:27:16.067Z,99266.63
2022-10-04T13:31:40.628Z,99264.22
2022-10-04T13:36:05.348Z,99271.16
2022-10-04T13:40:21.355Z,99263.41
2022-10-04T13:44:43.970Z,99269.91
2022-10-04T13:49:41.032Z,99261.78
2022-10-04T13:54:37.064Z,99266.03
2022-10-04T13:58:59.530Z,99265.84
2022-10-04T14:03:48.207Z,99266.88
2022-10-04T14:08:26.447Z,99268.69
2022-10-04T14:13:24.370Z,99272.75
2022-10-04T14:18:13.429Z,99271.75
2022-10-04T14:23:07.313Z,99271.94
2022-10-04T14:27:43.382Z,99270.34
2022-10-04T14:32:32.335Z,99253.03
2022-10-04T14:37:37.746Z,99241.03
2022-10-04T14:42:01.268Z,99235.75
2022-10-04T14:46:34.169Z,99226.19
2022-10-04T14:51:16.762Z,99217.84
2022-10-04T14:55:48.861Z,99226.81
2022-10-04T15:00:18.839Z,99231.88
2022-10-04T15:04:56.664Z,99246.09
2022-10-04T15:09:26.420Z,99257.25
2022-10-04T15:14:03.021Z,99252.38
2022-10-04T15:18:28.112Z,99244.66
2022-10-04T15:23:01.413Z,99242.22
2022-10-04T15:27:31.465Z,99237.94
2022-10-04T15:31:45.971Z,99238.53
2022-10-04T15:35:57.544Z,99231.81
2022-10-04T15:40:51.700Z,99228.16
2022-10-04T15:45:18.355Z,99225.91
2022-10-04T15:49:32.875Z,99213.94
2022-10-04T15:53:47.166Z,99221.63
2022-10-04T15:58:40.669Z,99221.00
2022-10-04T16:03:17.725Z,99213.69
2022-10-04T16:08:02.326Z,99205.72
2022-10-04T16:12:22.944Z,99204.31
2022-10-04T16:16:46.159Z,99193.28
2022-10-04T16:21:25.727Z,99195.88
2022-10-04T16:25:39.064Z,99205.19
2022-10-04T16:30:26.554Z,99191.50
2022-10-04T16:34:41.692Z,99188.19
2022-10-04T16:39:15.354Z,99196.63
2022-10-04T16:43:30.006Z,99197.31
2022-10-04T16:47:47.505Z,99200.78
2022-10-04T16:52:05.033Z,99199.38
2022-10-04T16:56:23.425Z,99203.25
2022-10-04T17:00:37.829Z,99210.84
2022-10-04T17:05:14.190Z,99215.75
2022-10-04T17:09:29.826Z,99224.28
2022-10-04T17:13:50.848Z,99217.75
2022-10-04T17:18:08.544Z,99226.31
2022-10-04T17:22:48.077Z,99224.53
2022-10-04T17:27:26.192Z,99231.53
2022-10-04T17:31:51.917Z,99240.81
2022-10-04T17:36:15.805Z,99238.63
2022-10-04T17:40:41.321Z,99249.81
2022-10-04T17:45:17.615Z,99254.00
2022-10-04T17:50:12.931Z,99271.09
2022-10-04T17:54:55.312Z,99270.00
2022-10-04T17:59:31.104Z,99273.16
2022-10-04T18:03:52.444Z,99277.59
2022-10-04T18:08:15.187Z,99285.50
2022-10-04T18:12:29.794Z,99283.53
2022-10-04T18:16:56.484Z,99292.53
2022-10-04T18:21:27.840Z,99288.81
2022-10-04T18:25:41.369Z,99282.91
2022-10-04T18:30:11.167Z,99282.28
2022-10-04T18:34:31.135Z,99272.44
2022-10-04T18:38:45.164Z,99271.47
2022-10-04T18:43:00.208Z,99281.91
2022-10-04T18:47:21.109Z,99284.19
2022-10-04T18:51:53.843Z,99288.28
2022-10-04T18:56:08.569Z,99303.13
2022-10-04T19:00:38.731Z,99300.16
2022-10-04T19:04:57.971Z,99295.91
2022-10-04T19:09:48.186Z,99309.47
2022-10-04T19:14:16.548Z,99298.34
2022-10-04T19:18:30.925Z,99305.31
2022-10-04T19:23:08.710Z,99308.06
2022-10-04T19:27:27.062Z,99311.63
2022-10-04T19:31:58.531Z,99328.69
2022-10-04T19:36:23.041Z,99334.09
2022-10-04T19:40:48.052Z,99333.84
2022-10-04T19:45:12.068Z,99338.38
2022-10-04T19:49:48.009Z,99338.66
2022-10-04T19:54:29.310Z,99342.22
2022-10-04T19:58:41.832Z,99343.28
2022-10-04T20:02:53.492Z,99337.84
2022-10-04T20:07:20.459Z,99346.41
2022-10-04T20:11:38.664Z,99347.19
2022-10-04T20:15:59.676Z,99359.03
2022-10-04T20:20:39.506Z,99360.59
2022-10-04T20:24:51.097Z,99362.25
2022-10-04T20:29:03.035Z,99363.16
2022-10-04T20:33:34.421Z,99363.59
2022-10-04T20:38:13.897Z,99356.00
2022-10-04T20:42:38.865Z,99357.22
2022-10-04T20:46:50.921Z,99350.97
2022-10-04T20:51:10.660Z,99349.47
2022-10-04T20:55:29.574Z,99357.09
2022-10-04T20:59:42.854Z,99355.47
2022-10-04T21:04:11.457Z,99354.31
2022-10-04T21:08:24.726Z,99352.00
2022-10-04T21:12:36.153Z,99345.41
2022-10-04T21:16:51.104Z,99349.28
2022-10-04T21:21:03.033Z,99349.88
2022-10-04T21:25:32.049Z,99345.63
